Latest Weather Observations for Cocos Island

IDW60801

Issued at 2:03 pm WST Monday 25 July 2016 (issued every 30 minutes, with the page automatically refreshed every 10 minutes)

About weather observations | Map of weather stations | Latest weather observations for WA | Other Formats
Station Details ID: 200284 Name: COCOS ISLAND AIRPORT Lat: -12.19 Lon: 96.83 Height: 3.0 m
Data from the previous 72 hours. | See also: Recent months at Cocos Island
Date/Time
WST
Temp
°C
App
Temp
°C
Dew
Point
°C
Rel
Hum
%
Delta-T
°C
Wind Press
QNH
hPa
Press
MSL
hPa
Rain since
9am
mm
Dir  Spd
km/h
Gust
km/h
Spd
kts
Gust
kts
25/02:00pm 27.5 29.8 25.1 87 1.7 E 22 28 12 15 1010.1 1010.0 0.2
25/01:30pm 27.4 30.1 24.7 85 1.9 E 19 24 10 13 1010.1 - 0.2
25/01:00pm 28.2 30.5 24.5 80 2.6 E 20 24 11 13 1010.6 - 0.2
25/12:30pm 28.1 30.6 24.8 82 2.3 E 20 26 11 14 1011.3 - 0.2
25/12:00pm 27.9 30.5 24.9 84 2.1 E 20 26 11 14 1011.7 - 0.2
25/11:30am 27.6 30.4 25.0 86 1.8 E 19 24 10 13 1011.5 - 0.0
25/11:00am 27.1 29.9 25.0 88 1.5 E 19 26 10 14 1011.3 1011.2 14.2
25/10:30am 26.6 30.0 24.6 89 1.4 ESE 15 22 8 12 1011.3 - 14.2
25/10:00am 25.3 28.9 24.3 94 0.7 ESE 13 19 7 10 1011.3 - 14.2
25/09:38am 25.6 28.5 24.4 93 0.8 E 17 32 9 17 1011.3 - 13.0
25/09:30am 25.6 28.4 24.3 92 0.9 ESE 17 26 9 14 1011.3 - 12.6
25/09:00am 25.4 27.6 24.2 93 0.8 SE 20 24 11 13 1011.0 - 12.6
25/08:41am 25.3 27.1 24.3 94 0.7 ESE 22 28 12 15 1011.0 - 12.6
25/08:30am 25.3 26.8 24.3 94 0.7 ESE 24 28 13 15 1010.7 - 12.6
25/08:27am 25.2 26.6 24.2 94 0.7 ESE 24 32 13 17 1010.7 - 12.6
25/08:00am 25.3 25.5 24.1 93 0.8 ESE 30 35 16 19 1010.2 1010.1 12.4
25/07:57am 25.4 26.0 24.2 93 0.8 ESE 28 35 15 19 1010.2 - 12.2
25/07:34am 25.4 25.4 23.8 91 1.1 SE 30 37 16 20 1010.0 - 11.6
25/07:30am 25.5 25.4 23.6 89 1.3 SE 30 37 16 20 1009.8 - 11.2
25/07:00am 25.7 26.1 23.7 89 1.4 ESE 28 35 15 19 1009.5 - 11.2
25/06:59am 25.6 26.3 23.7 89 1.3 ESE 26 35 14 19 1009.5 - 11.2
25/06:30am 25.6 26.7 23.7 89 1.3 ESE 24 32 13 17 1009.4 - 11.2
25/06:00am 25.5 26.2 23.7 90 1.2 ESE 26 35 14 19 1009.1 - 11.2
25/05:41am 25.3 26.1 23.8 91 1.0 ESE 26 35 14 19 1009.0 - 11.2
25/05:30am 25.2 26.1 23.9 92 0.9 ESE 26 33 14 18 1009.0 - 11.2
25/05:00am 25.2 25.9 24.3 95 0.6 ESE 28 35 15 19 1009.0 1008.9 11.2
25/04:52am 25.1 24.8 23.9 93 0.8 ESE 32 39 17 21 1009.0 - 11.2
25/04:30am 24.9 25.9 24.2 96 0.5 ESE 26 37 14 20 1009.1 - 11.2
25/04:04am 25.1 25.3 24.1 94 0.7 ESE 30 39 16 21 1009.2 - 10.6
25/04:00am 25.1 25.7 24.1 94 0.7 ESE 28 37 15 20 1009.3 - 10.6
25/03:49am 25.2 26.5 24.0 93 0.8 ESE 24 35 13 19 1009.4 - 10.6
25/03:30am 24.8 24.9 23.9 95 0.6 ESE 30 39 16 21 1009.5 - 10.6
25/03:00am 24.9 25.8 24.0 95 0.6 ESE 26 35 14 19 1009.8 - 10.4
25/02:39am 25.0 25.4 23.8 93 0.8 ESE 28 39 15 21 1010.0 - 10.0
25/02:30am 25.1 24.8 23.8 92 0.9 SE 32 39 17 21 1009.8 - 10.0
25/02:27am 25.1 24.8 23.8 92 0.9 SE 32 41 17 22 1009.7 - 10.0
25/02:04am 24.9 24.4 23.9 94 0.7 SE 33 43 18 23 1010.1 - 10.0
25/02:00am 25.0 24.6 24.0 94 0.7 SE 33 43 18 23 1010.1 1010.0 10.0
25/01:44am 25.4 24.9 23.9 91 1.0 ESE 33 43 18 23 1010.1 - 10.0
25/01:43am 25.4 24.9 23.9 91 1.0 ESE 33 41 18 22 1010.1 - 10.0
25/01:32am 25.2 24.8 24.0 93 0.8 SE 33 41 18 22 1010.3 - 10.0
25/01:30am 25.2 24.8 24.0 93 0.8 SE 33 43 18 23 1010.4 - 10.0
25/01:02am 24.9 25.2 24.2 96 0.5 SE 30 37 16 20 1010.7 - 9.6
25/01:00am 24.9 25.0 24.0 95 0.6 SE 30 37 16 20 1010.8 - 9.6
25/12:30am 24.9 24.3 23.7 93 0.8 ESE 33 43 18 23 1010.8 - 9.4
25/12:28am 25.1 24.6 23.9 93 0.8 ESE 33 43 18 23 1010.8 - 9.4
25/12:08am 25.0 25.0 23.8 93 0.8 ESE 30 39 16 21 1010.7 - 9.4
25/12:00am 25.0 25.5 24.0 94 0.7 ESE 28 41 15 22 1010.8 - 9.4
 
Date/Time
WST
Temp
°C
App
Temp
°C
Dew
Point
°C
Rel
Hum
%
Delta-T
°C
Wind Press
QNH
hPa
Press
MSL
hPa
Rain since
9am
mm
Dir  Spd
km/h
Gust
km/h
Spd
kts
Gust
kts
24/11:58pm 25.1 25.6 23.9 93 0.8 ESE 28 41 15 22 1010.8 - 9.4
24/11:52pm 25.3 26.4 24.4 95 0.6 ESE 26 35 14 19 1010.8 - 9.4
24/11:49pm 25.4 26.5 24.4 94 0.7 ESE 26 35 14 19 1010.8 - 9.4
24/11:32pm 25.7 26.3 24.2 91 1.0 ESE 28 37 15 20 1010.8 - 9.0
24/11:30pm 25.8 26.6 24.4 92 1.0 ESE 28 35 15 19 1010.8 - 9.0
24/11:29pm 25.9 26.6 24.3 91 1.1 ESE 28 35 15 19 1010.8 - 8.6
24/11:00pm 26.0 26.5 24.0 89 1.4 SE 28 35 15 19 1011.0 1010.9 8.6
24/10:44pm 25.8 26.8 24.1 90 1.2 ESE 26 35 14 19 1011.1 - 8.6
24/10:30pm 25.8 26.7 23.9 89 1.3 ESE 26 35 14 19 1011.1 - 8.6
24/10:09pm 26.2 27.2 24.2 89 1.4 ESE 26 33 14 18 1011.0 - 8.6
24/10:06pm 26.2 26.8 24.2 89 1.4 ESE 28 35 15 19 1011.0 - 8.6
24/10:00pm 26.1 26.2 23.9 88 1.5 ESE 30 37 16 20 1010.9 - 8.6
24/09:46pm 26.0 26.7 24.3 90 1.2 ESE 28 35 15 19 1010.8 - 8.6
24/09:30pm 25.6 27.8 24.3 92 0.9 ESE 20 28 11 15 1010.6 - 8.6
24/09:24pm 25.3 27.0 24.0 92 0.9 E 22 32 12 17 1010.6 - 8.6
24/09:08pm 25.8 28.3 24.4 92 1.0 ESE 19 22 10 12 1010.6 - 6.8
24/09:00pm 25.6 27.8 24.0 91 1.1 ESE 19 26 10 14 1010.5 - 6.6
24/08:46pm 25.5 27.1 23.9 91 1.1 ESE 22 30 12 16 1010.4 - 6.6
24/08:36pm 25.5 26.8 24.0 91 1.0 ESE 24 35 13 19 1010.2 - 6.6
24/08:30pm 25.6 26.9 24.1 91 1.0 ESE 24 35 13 19 1010.1 - 6.6
24/08:10pm 25.8 26.9 24.4 92 1.0 ESE 26 35 14 19 1009.9 - 6.4
24/08:00pm 25.6 27.1 24.3 92 0.9 ESE 24 35 13 19 1009.7 1009.6 6.4
24/07:52pm 25.6 26.2 24.1 91 1.0 ESE 28 37 15 20 1009.8 - 6.4
24/07:30pm 25.6 27.6 24.0 91 1.1 ESE 20 30 11 16 1009.3 - 6.0
24/07:00pm 25.4 26.4 24.1 92 0.9 ESE 26 37 14 20 1009.2 - 5.8
24/06:59pm 25.4 26.7 24.1 92 0.9 ESE 24 37 13 20 1009.2 - 5.6
24/06:39pm 25.7 27.2 24.4 92 0.9 ESE 24 35 13 19 1009.0 - 5.0
24/06:30pm 25.7 26.7 24.1 91 1.1 ESE 26 33 14 18 1008.9 - 4.8
24/06:18pm 25.7 26.2 24.0 90 1.2 ESE 28 37 15 20 1008.7 - 4.6
24/06:10pm 26.3 27.3 24.1 88 1.5 ESE 26 39 14 21 1008.5 - 4.6
24/06:00pm 26.2 26.3 23.9 87 1.6 ESE 30 39 16 21 1008.3 - 4.6
24/05:51pm 26.1 26.3 24.1 89 1.4 ESE 30 43 16 23 1008.2 - 4.6
24/05:40pm 26.4 26.5 23.9 86 1.7 ESE 30 41 16 22 1008.2 - 4.6
24/05:30pm 26.5 26.5 23.7 84 1.9 ESE 30 39 16 21 1008.1 - 4.6
24/05:28pm 26.6 26.6 23.7 84 2.0 ESE 30 39 16 21 1008.1 - 4.6
24/05:25pm 26.6 26.6 23.7 84 2.0 ESE 30 41 16 22 1008.1 - 4.6
24/05:01pm 26.2 25.3 23.9 87 1.6 SE 35 46 19 25 1008.0 - 4.6
24/05:00pm 26.3 25.6 24.1 88 1.5 SE 35 46 19 25 1008.0 1007.9 4.6
24/04:30pm 26.1 25.6 23.9 88 1.5 SE 33 39 18 21 1007.9 - 4.6
24/04:10pm 25.5 23.7 23.0 86 1.7 ESE 37 46 20 25 1008.1 - 4.6
24/04:08pm 25.7 24.2 23.5 88 1.5 ESE 37 46 20 25 1008.1 - 4.6
24/04:00pm 25.8 25.5 24.2 91 1.1 ESE 33 43 18 23 1008.0 - 4.6
24/03:43pm 25.9 25.7 24.3 91 1.1 ESE 33 44 18 24 1008.2 - 4.6
24/03:37pm 26.5 25.6 23.9 85 1.8 SE 35 44 19 24 1008.2 - 4.6
24/03:30pm 26.1 26.2 23.9 88 1.5 SE 30 43 16 23 1008.3 - 4.6
24/03:23pm 25.7 26.0 24.3 92 1.0 ESE 30 43 16 23 1008.4 - 4.6
24/03:00pm 25.7 25.1 23.4 87 1.6 ESE 32 44 17 24 1008.7 - 4.6
24/02:43pm 25.4 24.7 23.2 88 1.5 ESE 32 44 17 24 1008.8 - 4.6
24/02:30pm 25.0 23.5 23.5 91 1.0 ESE 37 48 20 26 1009.1 - 4.6
24/02:19pm 25.5 24.3 23.9 91 1.1 SE 37 50 20 27 1009.3 - 4.2
24/02:16pm 25.6 24.7 23.9 90 1.2 SE 35 50 19 27 1009.3 - 4.2
24/02:00pm 25.7 24.0 23.7 89 1.4 SE 39 54 21 29 1009.6 1009.5 4.2
24/01:40pm 26.0 25.4 24.3 90 1.2 SE 35 46 19 25 1009.7 - 4.2
24/01:30pm 25.6 24.6 23.7 89 1.3 SE 35 44 19 24 1010.0 - 4.2
24/01:01pm 25.4 24.9 23.9 91 1.0 SE 33 43 18 23 1010.2 - 4.2
24/01:00pm 25.5 25.1 24.0 91 1.0 SE 33 43 18 23 1010.3 - 4.2
24/12:38pm 25.7 26.1 23.8 89 1.3 SE 28 39 15 21 1010.6 - 4.0
24/12:33pm 25.6 26.2 24.1 91 1.0 SE 28 37 15 20 1010.6 - 4.0
24/12:30pm 25.5 25.5 23.7 90 1.2 SE 30 39 16 21 1010.6 - 4.0
24/12:00pm 25.1 24.6 23.9 93 0.8 SE 33 44 18 24 1010.9 - 3.8
24/11:54am 25.1 24.6 23.8 92 0.9 SE 33 44 18 24 1011.1 - 3.6
24/11:37am 25.1 26.5 24.2 95 0.6 SSE 24 32 13 17 1011.6 - 2.8
24/11:30am 25.0 25.9 24.0 94 0.7 SSE 26 33 14 18 1011.7 - 2.2
24/11:00am 24.8 25.3 23.9 95 0.6 SE 28 39 15 21 1011.6 1011.5 10.2
24/10:30am 24.6 25.7 23.6 94 0.7 SE 24 35 13 19 1011.8 - 7.2
24/10:01am 24.6 26.1 23.7 95 0.6 SE 22 28 12 15 1011.9 - 4.2
24/10:00am 24.8 26.4 23.8 94 0.7 SE 22 28 12 15 1011.9 - 4.2
24/09:48am 25.1 27.2 23.8 92 0.9 SSE 19 26 10 14 1011.9 - 2.8
24/09:30am 24.7 25.3 23.4 92 0.9 SE 26 37 14 20 1011.8 - 1.8
24/09:26am 24.8 25.8 23.5 92 0.9 SE 24 37 13 20 1011.8 - 1.4
24/09:00am 25.2 26.6 23.6 91 1.1 SSE 22 32 12 17 1011.3 - 1.0
24/08:46am 25.1 26.0 23.3 90 1.2 SE 24 35 13 19 1011.1 - 1.0
24/08:35am 25.1 25.5 23.2 89 1.3 SE 26 35 14 19 1011.0 - 0.8
24/08:30am 25.3 25.7 23.2 88 1.4 SE 26 35 14 19 1011.0 - 0.4
24/08:10am 25.3 24.8 22.9 86 1.6 SE 30 39 16 21 1010.4 - 0.4
24/08:00am 25.7 25.7 23.0 85 1.8 SE 28 41 15 22 1010.2 1010.1 0.4
24/07:59am 25.7 25.7 23.0 85 1.8 SE 28 41 15 22 1010.2 - 0.4
24/07:32am 25.7 25.2 22.9 84 1.9 SE 30 41 16 22 1010.0 - 0.4
24/07:30am 25.7 25.4 23.2 86 1.7 SE 30 41 16 22 1010.0 - 0.4
24/07:00am 25.7 25.7 23.0 85 1.8 SE 28 35 15 19 1009.7 - 0.4
24/06:30am 25.3 23.6 23.1 87 1.5 SE 37 50 20 27 1009.4 - 0.4
24/06:07am 25.6 24.7 23.1 86 1.7 SE 33 41 18 22 1009.2 - 0.4
24/06:00am 25.5 24.1 23.0 86 1.7 SE 35 44 19 24 1009.1 - 0.4
24/05:30am 25.5 24.4 22.8 85 1.8 SE 33 41 18 22 1009.0 - 0.4
24/05:10am 25.1 23.6 22.7 86 1.6 SE 35 48 19 26 1009.1 - 0.4
24/05:06am 25.0 23.2 22.9 88 1.4 SE 37 48 20 26 1009.1 - 0.4
24/05:00am 24.9 23.4 22.7 87 1.5 SE 35 52 19 28 1009.1 1009.0 0.4
24/04:54am 24.6 23.3 23.1 91 1.0 ESE 35 54 19 29 1009.1 - 0.4
24/04:51am 24.9 23.7 23.3 91 1.1 ESE 35 54 19 29 1009.2 - 0.4
24/04:50am 25.1 23.9 23.3 90 1.2 ESE 35 54 19 29 1009.2 - 0.4
24/04:30am 25.1 23.7 23.0 88 1.4 SE 35 48 19 26 1009.2 - 0.4
24/04:00am 25.4 23.8 22.6 84 1.9 SE 35 46 19 25 1009.3 - 0.4
24/03:44am 24.9 24.1 23.1 90 1.2 SE 32 44 17 24 1009.4 - 0.4
24/03:30am 24.4 22.0 22.6 90 1.2 SE 39 52 21 28 1009.7 - 0.4
24/03:24am 25.3 24.4 23.2 88 1.4 SE 33 52 18 28 1009.8 - 0.4
24/03:11am 25.3 23.8 22.8 86 1.7 SE 35 48 19 26 1009.9 - 0.4
24/03:00am 25.4 24.0 23.0 86 1.6 SE 35 46 19 25 1010.0 - 0.4
24/02:30am 25.7 24.0 22.4 82 2.2 SE 35 44 19 24 1010.4 - 0.4
24/02:00am 25.1 23.7 22.9 87 1.5 SE 35 46 19 25 1010.6 1010.5 0.4
24/01:30am 25.7 24.5 22.6 83 2.1 SE 33 43 18 23 1010.5 - 0.4
24/01:00am 25.5 24.5 22.7 84 1.9 SE 32 43 17 23 1011.0 - 0.4
24/12:30am 25.1 24.1 23.0 88 1.4 SE 33 44 18 24 1011.2 - 0.2
24/12:00am 25.8 24.3 22.7 83 2.1 SE 35 46 19 25 1011.0 - 0.2
 
Date/Time
WST
Temp
°C
App
Temp
°C
Dew
Point
°C
Rel
Hum
%
Delta-T
°C
Wind Press
QNH
hPa
Press
MSL
hPa
Rain since
9am
mm
Dir  Spd
km/h
Gust
km/h
Spd
kts
Gust
kts
23/11:30pm 25.6 23.8 22.9 85 1.8 SE 37 50 20 27 1010.9 - 0.2
23/11:00pm 25.9 24.8 22.8 83 2.1 SE 33 44 18 24 1011.1 1011.0 0.2
23/10:30pm 25.6 24.8 23.1 86 1.7 SE 32 41 17 22 1011.1 - 0.2
23/10:00pm 25.9 24.5 22.9 83 2.0 SE 35 46 19 25 1010.8 - 0.2
23/09:30pm 25.7 23.9 23.0 85 1.8 SE 37 52 20 28 1010.7 - 0.2
23/09:00pm 25.9 24.2 22.5 81 2.3 SE 35 46 19 25 1010.6 - 0.2
23/08:30pm 25.6 24.7 22.9 85 1.8 SE 32 41 17 22 1010.6 - 0.2
23/08:14pm 25.7 24.2 22.7 83 2.0 SE 35 52 19 28 1010.6 - 0.2
23/08:02pm 25.3 23.8 22.8 86 1.7 SE 35 54 19 29 1010.5 - 0.2
23/08:00pm 25.2 22.8 22.5 85 1.8 SE 39 54 21 29 1010.4 1010.3 0.2
23/07:56pm 24.8 22.3 23.0 90 1.2 SE 41 54 22 29 1010.3 - 0.2
23/07:30pm 25.3 23.2 22.3 83 2.0 SE 37 50 20 27 1009.8 - 0.2
23/07:25pm 25.8 24.6 22.7 83 2.1 SE 33 50 18 27 1009.7 - 0.2
23/07:06pm 25.8 24.8 23.0 84 1.9 SE 33 48 18 26 1009.6 - 0.2
23/07:00pm 25.8 23.8 22.5 82 2.2 SE 37 46 20 25 1009.6 - 0.2
23/06:30pm 25.6 23.8 22.3 82 2.2 SE 35 50 19 27 1009.3 - 0.2
23/06:00pm 25.9 23.2 21.9 78 2.7 SE 39 50 21 27 1009.1 - 0.2
23/05:30pm 25.9 22.8 22.0 79 2.6 SE 41 52 22 28 1009.0 - 0.2
23/05:14pm 26.0 22.8 21.8 77 2.8 SE 41 52 22 28 1009.0 - 0.2
23/05:00pm 25.5 23.0 23.0 86 1.7 SE 41 59 22 32 1008.8 1008.7 0.2
23/04:59pm 25.3 22.7 22.8 86 1.7 SE 41 59 22 32 1008.9 - 0.2
23/04:56pm 25.1 22.1 22.9 87 1.5 SE 43 59 23 32 1009.0 - 0.2
23/04:30pm 26.6 24.1 22.3 77 2.9 SE 39 52 21 28 1009.0 - 0.2
23/04:00pm 26.1 23.5 22.2 79 2.6 SE 39 59 21 32 1008.8 - 0.2
23/03:37pm 26.2 25.1 23.4 84 1.9 SE 35 59 19 32 1009.3 - 0.2
23/03:30pm 26.0 24.5 23.4 85 1.8 SE 37 44 20 24 1009.3 - 0.2
23/03:17pm 25.3 22.8 23.1 87 1.5 SE 41 59 22 32 1009.6 - 0.2
23/03:00pm 24.9 22.1 22.4 86 1.7 SE 41 59 22 32 1009.9 - 0.2
23/02:58pm 24.8 21.9 22.3 86 1.7 SE 41 59 22 32 1010.0 - 0.2
23/02:44pm 26.4 24.4 22.5 79 2.6 SE 37 56 20 30 1010.0 - 0.2
23/02:30pm 27.1 24.9 22.8 77 2.9 SE 39 50 21 27 1010.0 - 0.2
23/02:03pm 26.3 24.3 22.6 80 2.5 SE 37 52 20 28 1010.3 - 0.2
23/02:00pm 26.2 24.9 23.1 83 2.1 SE 35 48 19 26 1010.3 1010.2 0.2
23/01:45pm 25.4 23.0 22.6 84 1.9 SE 39 54 21 29 1010.6 - 0.2
23/01:30pm 26.5 24.4 23.0 81 2.4 SE 39 52 21 28 1010.6 - 0.2
23/01:00pm 26.7 24.0 22.7 79 2.7 SE 41 54 22 29 1010.7 - 0.2
23/12:30pm 27.0 25.2 23.0 79 2.7 SE 37 48 20 26 1011.1 - 0.2
23/12:00pm 26.3 24.5 22.9 81 2.3 SE 37 48 20 26 1011.5 - 0.0
23/11:30am 26.3 24.9 22.9 81 2.3 SE 35 46 19 25 1011.8 - 0.0
23/11:00am 25.9 24.8 22.8 83 2.1 SE 33 44 18 24 1011.8 1011.7 0.8
23/10:30am 25.9 23.9 22.6 82 2.2 SE 37 48 20 26 1011.7 - 0.8
23/10:00am 25.9 23.8 22.3 80 2.4 SE 37 48 20 26 1011.8 - 0.8
23/09:30am 25.7 23.6 22.4 82 2.2 SE 37 50 20 27 1011.3 - 0.8
23/09:00am 25.8 23.7 22.4 81 2.3 SE 37 46 20 25 1010.9 - 0.8
23/08:30am 25.4 24.2 22.6 84 1.9 SE 33 46 18 25 1010.6 - 0.8
23/08:00am 25.4 23.8 22.6 84 1.9 SE 35 46 19 25 1010.4 1010.3 0.8
23/07:30am 25.1 23.0 22.3 84 1.9 SE 37 48 20 26 1010.2 - 0.8
23/07:00am 25.3 23.1 22.2 83 2.1 SE 37 50 20 27 1010.2 - 0.8
23/06:30am 25.2 23.4 22.2 83 2.0 SE 35 46 19 25 1010.1 - 0.8
23/06:00am 25.2 23.7 21.7 81 2.3 SE 32 43 17 23 1010.1 - 0.8
23/05:31am 25.1 23.6 22.0 83 2.1 SE 33 52 18 28 1010.1 - 0.8
23/05:30am 25.2 23.2 21.9 82 2.2 SE 35 52 19 28 1010.1 - 0.8
23/05:00am 25.3 23.1 21.4 79 2.6 SE 35 46 19 25 1010.0 1009.9 0.8
23/04:30am 24.9 22.8 21.7 82 2.1 SE 35 46 19 25 1010.4 - 0.8
23/04:00am 25.3 23.8 22.0 82 2.2 SE 33 44 18 24 1010.7 - 0.8
23/03:40am 25.2 23.1 21.7 81 2.3 SE 35 46 19 25 1010.6 - 0.8
23/03:30am 24.9 22.5 21.9 83 2.0 SE 37 48 20 26 1010.7 - 0.8
23/03:23am 24.5 22.3 22.1 86 1.6 SE 37 48 20 26 1010.9 - 0.8
23/03:00am 25.3 22.6 22.0 82 2.2 SE 39 48 21 26 1011.0 - 0.8
23/02:44am 24.9 23.7 22.2 85 1.8 SE 32 50 17 27 1011.3 - 0.8
23/02:30am 25.1 22.6 21.6 81 2.3 SE 37 52 20 28 1011.2 - 0.8
23/02:00am 25.3 23.8 22.0 82 2.2 SE 33 46 18 25 1011.6 1011.5 0.8
23/01:32am 24.8 22.3 22.4 86 1.6 SE 39 57 21 31 1011.8 - 0.8
23/01:30am 24.9 21.7 22.4 86 1.7 SE 43 57 23 31 1011.8 - 0.8
23/01:23am 25.0 22.5 22.3 85 1.8 SE 39 57 21 31 1011.9 - 0.8
23/01:00am 25.2 23.1 21.6 80 2.4 SE 35 44 19 24 1012.1 - 0.8
23/12:30am 25.5 24.1 22.2 82 2.2 SE 33 46 18 25 1012.1 - 0.8
23/12:16am 25.1 23.9 22.7 86 1.6 SE 33 43 18 23 1012.2 - 0.8
23/12:00am 24.7 22.7 22.6 88 1.4 SSE 37 50 20 27 1012.2 - 0.8
 
Date/Time
WST
Temp
°C
App
Temp
°C
Dew
Point
°C
Rel
Hum
%
Delta-T
°C
Wind Press
QNH
hPa
Press
MSL
hPa
Rain since
9am
mm
Dir  Spd
km/h
Gust
km/h
Spd
kts
Gust
kts
22/11:50pm 25.0 23.1 22.0 83 2.0 SE 35 56 19 30 1012.2 - 0.8
22/11:30pm 25.0 23.6 22.3 85 1.8 SE 33 44 18 24 1012.1 - 0.8
22/11:28pm 24.9 23.2 22.4 86 1.7 SE 35 50 19 27 1012.2 - 0.8
22/11:04pm 24.4 23.5 22.9 91 1.0 SE 32 44 17 24 1012.3 - 0.4
22/11:00pm 24.8 23.8 22.6 87 1.5 SSE 32 46 17 25 1012.2 1012.1 0.2
22/10:50pm 24.7 23.6 22.5 87 1.5 SSE 32 44 17 24 1012.2 - 0.2
22/10:30pm 24.5 22.6 22.7 90 1.2 SE 37 52 20 28 1012.2 - 0.2
22/10:29pm 24.6 22.9 22.5 88 1.4 SE 35 52 19 28 1012.2 - 0.0
22/10:25pm 24.9 23.7 22.2 85 1.8 SSE 32 50 17 27 1012.2 - 0.0
22/10:00pm 25.0 24.0 22.6 86 1.6 SSE 32 44 17 24 1011.8 - 0.0
22/09:39pm 25.9 24.2 22.5 81 2.3 SE 35 54 19 29 1011.7 - 0.0
22/09:30pm 25.8 23.9 22.1 80 2.5 SE 35 48 19 26 1011.5 - 0.0
22/09:00pm 25.9 25.4 22.8 83 2.1 SSE 30 41 16 22 1011.2 - 0.0
22/08:30pm 25.8 25.3 22.8 83 2.0 SSE 30 44 16 24 1010.8 - 0.0
22/08:00pm 25.8 24.3 22.8 83 2.0 SE 35 46 19 25 1010.3 1010.2 0.0
22/07:30pm 25.7 24.7 22.7 83 2.0 SSE 32 43 17 23 1009.7 - 0.0
22/07:00pm 26.2 24.8 22.3 79 2.6 SE 33 43 18 23 1009.4 - 0.0
22/06:31pm 25.7 24.4 22.4 82 2.2 SE 33 50 18 27 1009.3 - 0.0
22/06:30pm 25.7 24.3 22.3 81 2.3 SSE 33 50 18 27 1009.3 - 0.0
22/06:12pm 25.9 24.7 22.6 82 2.2 SE 33 46 18 25 1009.2 - 0.0
22/06:00pm 26.2 24.9 23.1 83 2.1 SE 35 46 19 25 1009.0 - 0.0
22/05:30pm 26.0 24.9 22.9 83 2.1 SE 33 44 18 24 1008.8 - 0.0
22/05:00pm 26.9 25.9 22.6 77 2.9 SE 32 41 17 22 1008.8 1008.7 0.0
22/04:30pm 26.3 24.9 22.9 81 2.3 SE 35 48 19 26 1009.0 - 0.0
22/04:00pm 26.9 25.6 23.1 80 2.6 SE 35 48 19 26 1009.2 - 0.0

Other Formats:

Comma delimited format used in spreadsheet applications
http://www.bom.gov.au/fwo/IDW60801/IDW60801.96996.axf

JavaScript Object Notation format (JSON) in row-major order
http://www.bom.gov.au/fwo/IDW60801/IDW60801.96996.json